| time (UTC) | temp C | wind direction | speed KPH | gust KPH | rain 1hr cm | rain 24hr cm | rain mn cm | humidity % | barometer mb |
| 20260504202016 | 26 | 288 | 11.3 | 29.0 | 0.00 | 0.00 | 0.00 | 28 | 997.9 |
| 20260504201016 | 26 | 293 | 14.5 | 30.6 | 0.00 | 0.00 | 0.00 | 28 | 998.0 |
| 20260504200036 | 26 | 297 | 12.9 | 45.1 | 0.00 | 0.00 | 0.00 | 28 | 998.2 |
| 20260504195037 | 26 | 295 | 12.9 | 22.5 | 0.00 | 0.00 | 0.00 | 28 | 998.4 |
| 20260504194015 | 25 | 309 | 11.3 | 38.6 | 0.00 | 0.00 | 0.00 | 30 | 998.6 |
| 20260504193017 | 25 | 268 | 12.9 | 29.0 | 0.00 | 0.00 | 0.00 | 30 | 998.7 |
| 20260504192016 | 26 | 250 | 11.3 | 25.7 | 0.00 | 0.00 | 0.00 | 30 | 998.7 |
| 20260504191016 | 25 | 292 | 16.1 | 35.4 | 0.00 | 0.00 | 0.00 | 31 | 998.9 |
| 20260504190016 | 25 | 269 | 12.9 | 33.8 | 0.00 | 0.00 | 0.00 | 33 | 998.9 |
| 20260504185016 | 25 | 259 | 9.7 | 27.4 | 0.00 | 0.00 | 0.00 | 34 | 998.9 |
| 20260504184016 | 25 | 226 | 9.7 | 24.1 | 0.00 | 0.00 | 0.00 | 35 | 998.9 |
| 20260504183016 | 25 | 258 | 8.0 | 25.7 | 0.00 | 0.00 | 0.00 | 34 | 998.9 |
| 20260504182016 | 24 | 223 | 8.0 | 24.1 | 0.00 | 0.00 | 0.00 | 34 | 999.0 |
| 20260504181017 | 24 | 244 | 8.0 | 24.1 | 0.00 | 0.00 | 0.00 | 34 | 999.1 |
| 20260504180016 | 23 | 257 | 11.3 | 24.1 | 0.00 | 0.00 | 0.00 | 33 | 999.1 |
| 20260504175016 | 23 | 259 | 14.5 | 27.4 | 0.00 | 0.00 | 0.00 | 34 | 999.4 |
| 20260504174016 | 23 | 252 | 12.9 | 30.6 | 0.00 | 0.00 | 0.00 | 33 | 999.6 |
| 20260504173016 | 23 | 263 | 6.4 | 25.7 | 0.00 | 0.00 | 0.00 | 36 | 999.6 |
| 20260504172016 | 23 | 222 | 12.9 | 29.0 | 0.00 | 0.00 | 0.00 | 35 | 999.8 |
| 20260504171016 | 23 | 224 | 8.0 | 29.0 | 0.00 | 0.00 | 0.00 | 38 | 1000.0 |
| 20260504151017 | 20 | 196 | 8.0 | 20.9 | 0.00 | 0.00 | 0.00 | 44 | 1001.4 |
| 20260504141036 | 17 | 195 | 6.4 | 20.9 | 0.00 | 0.00 | 0.00 | 54 | 1002.0 |
| 20260504081016 | 10 | 276 | 0.0 | 3.2 | 0.00 | 0.00 | 0.00 | 73 | 1002.8 |
| 20260504050015 | 14 | 240 | 6.4 | 17.7 | 0.00 | 0.00 | 0.00 | 63 | 1004.6 |
| 20260504045016 | 13 | 253 | 4.8 | 16.1 | 0.00 | 0.00 | 0.00 | 63 | 1004.6 |
| 20260504044015 | 13 | 248 | 3.2 | 12.9 | 0.00 | 0.00 | 0.00 | 64 | 1004.6 |
| 20260504043015 | 13 | 231 | 3.2 | 11.3 | 0.00 | 0.00 | 0.00 | 64 | 1004.6 |
| 20260504042016 | 13 | 252 | 1.6 | 9.7 | 0.00 | 0.00 | 0.00 | 64 | 1004.6 |
| 20260504041036 | 14 | 244 | 1.6 | 8.0 | 0.00 | 0.00 | 0.00 | 63 | 1004.6 |
| 20260504040016 | 14 | 235 | 3.2 | 8.0 | 0.00 | 0.00 | 0.00 | 63 | 1004.7 |
| 20260504035036 | 14 | 214 | 3.2 | 9.7 | 0.00 | 0.00 | 0.00 | 62 | 1004.7 |
| 20260504034016 | 15 | 219 | 3.2 | 11.3 | 0.00 | 0.00 | 0.00 | 62 | 1004.7 |
| 20260504033017 | 15 | 210 | 3.2 | 8.0 | 0.00 | 0.00 | 0.00 | 61 | 1004.8 |
| 20260504032015 | 15 | 217 | 3.2 | 11.3 | 0.00 | 0.00 | 0.00 | 61 | 1004.9 |
| 20260504031015 | 15 | 206 | 3.2 | 8.0 | 0.00 | 0.00 | 0.00 | 60 | 1005.0 |
| 20260504030015 | 15 | 224 | 4.8 | 12.9 | 0.00 | 0.00 | 0.00 | 59 | 1005.1 |
| 20260504025015 | 15 | 175 | 3.2 | 8.0 | 0.00 | 0.00 | 0.00 | 59 | 1005.1 |
| 20260504024036 | 15 | 183 | 1.6 | 6.4 | 0.00 | 0.00 | 0.00 | 58 | 1005.1 |
| 20260504023036 | 16 | 206 | 1.6 | 8.0 | 0.00 | 0.00 | 0.00 | 57 | 1005.0 |
| 20260504022015 | 16 | 222 | 4.8 | 11.3 | 0.00 | 0.00 | 0.00 | 57 | 1004.9 |
| 20260504021036 | 16 | 226 | 1.6 | 6.4 | 0.00 | 0.00 | 0.00 | 56 | 1004.8 |
| 20260504020016 | 16 | 220 | 1.6 | 6.4 | 0.00 | 0.00 | 0.00 | 55 | 1004.8 |
| 20260504015015 | 16 | 239 | 1.6 | 8.0 | 0.00 | 0.00 | 0.00 | 55 | 1004.8 |
| 20260504014016 | 16 | 239 | 1.6 | 6.4 | 0.00 | 0.00 | 0.00 | 54 | 1004.6 |
| 20260504013016 | 17 | 233 | 3.2 | 9.7 | 0.00 | 0.00 | 0.00 | 53 | 1004.6 |
| 20260504012016 | 17 | 227 | 1.6 | 6.4 | 0.00 | 0.00 | 0.00 | 52 | 1004.4 |
| 20260504011016 | 17 | 221 | 1.6 | 6.4 | 0.00 | 0.00 | 0.00 | 50 | 1004.3 |
| 20260504010015 | 18 | 226 | 3.2 | 11.3 | 0.00 | 0.00 | 0.00 | 49 | 1004.2 |
| 20260504005015 | 18 | 229 | 3.2 | 12.9 | 0.00 | 0.00 | 0.00 | 47 | 1004.3 |
| 20260504004015 | 19 | 243 | 3.2 | 9.7 | 0.00 | 0.00 | 0.00 | 46 | 1004.4 |
| 20260504003015 | 20 | 252 | 3.2 | 11.3 | 0.00 | 0.00 | 0.00 | 44 | 1004.4 |
| 20260504002015 | 20 | 250 | 3.2 | 9.7 | 0.00 | 0.00 | 0.00 | 44 | 1004.3 |
| 20260504001015 | 20 | 283 | 6.4 | 20.9 | 0.00 | 0.00 | 0.00 | 43 | 1004.4 |
| 20260504000037 | 20 | 289 | 6.4 | 22.5 | 0.00 | 0.00 | 0.00 | 43 | 1004.4 |
| 20260503235019 | 20 | 281 | 8.0 | 30.6 | 0.00 | 0.00 | 0.00 | 42 | 1004.3 |
| 20260503234016 | 20 | 271 | 6.4 | 16.1 | 0.00 | 0.00 | 0.00 | 42 | 1004.3 |
| 20260503233015 | 20 | 258 | 11.3 | 25.7 | 0.00 | 0.00 | 0.00 | 42 | 1004.4 |
| 20260503232015 | 21 | 260 | 11.3 | 27.4 | 0.00 | 0.00 | 0.00 | 42 | 1004.5 |
| 20260503231015 | 21 | 268 | 8.0 | 22.5 | 0.00 | 0.00 | 0.00 | 41 | 1004.5 |
| 20260503230035 | 20 | 269 | 6.4 | 16.1 | 0.00 | 0.00 | 0.00 | 42 | 1004.5 |
| 20260503225016 | 20 | 275 | 14.5 | 25.7 | 0.00 | 0.00 | 0.00 | 42 | 1004.6 |
| 20260503224015 | 20 | 228 | 11.3 | 27.4 | 0.00 | 0.00 | 0.00 | 41 | 1004.6 |
| 20260503223015 | 20 | 239 | 6.4 | 20.9 | 0.00 | 0.00 | 0.00 | 42 | 1004.6 |
| 20260503222015 | 20 | 211 | 6.4 | 24.1 | 0.00 | 0.00 | 0.00 | 42 | 1004.7 |
| 20260503221015 | 20 | 199 | 12.9 | 24.1 | 0.00 | 0.00 | 0.00 | 41 | 1004.8 |
| 20260503220015 | 20 | 209 | 11.3 | 25.7 | 0.00 | 0.00 | 0.00 | 41 | 1005.0 |
| 20260503215015 | 20 | 237 | 9.7 | 30.6 | 0.00 | 0.00 | 0.00 | 42 | 1005.0 |
| 20260503214015 | 20 | 221 | 11.3 | 29.0 | 0.00 | 0.00 | 0.00 | 42 | 1005.2 |
| 20260503213016 | 20 | 241 | 12.9 | 29.0 | 0.00 | 0.00 | 0.00 | 41 | 1005.3 |
| 20260503212035 | 19 | 233 | 12.9 | 32.2 | 0.00 | 0.00 | 0.00 | 41 | 1005.5 |
| 20260503211035 | 19 | 262 | 11.3 | 25.7 | 0.00 | 0.00 | 0.00 | 42 | 1005.6 |
| 20260503210015 | 18 | 245 | 16.1 | 40.2 | 0.00 | 0.00 | 0.00 | 41 | 1005.7 |
| 20260503205015 | 18 | 225 | 8.0 | 30.6 | 0.00 | 0.00 | 0.00 | 43 | 1005.9 |
| 20260503204015 | 18 | 207 | 14.5 | 37.0 | 0.00 | 0.00 | 0.00 | 42 | 1006.2 |
| 20260503203016 | 17 | 229 | 12.9 | 30.6 | 0.00 | 0.00 | 0.00 | 43 | 1006.4 |